Bellingham, Massachusetts
Current Conditions -  °F | °C
As of 7:15 AM on Sunday 25 Jan 2015 (Local Time) from KSFZ Reporting Station
Broken Clouds Broken Clouds  
Wind Chill: 22°   Ceiling: 4800
Heat Index: 30°   Visibility: 10mi
Dew Point: 21°   Wind: 9mph
Humidity: 69%   Direction: 250°WSW
Pressure: 29.52"   Gusts: 16mph
Location:  42.09°N, 71.47°W
Report Text: KSFZ 251215Z 25008G14KT 200V260 10SM BKN048 M01/M06 A2952 RMK AO1
Loading
Personal Weather Stations






























Interactive Weather Map New forecast layout! Learn more

10-Day Weather Forecast

Advertisements
Track Severe Weather on mobile